createdAt,value
2022-10-13T00:00:48.194Z,10.02
2022-10-13T00:03:16.899Z,12.98
2022-10-13T00:05:47.054Z,12.00
2022-10-13T00:08:18.857Z,14.40
2022-10-13T00:10:47.928Z,13.30
2022-10-13T00:13:16.290Z,13.60
2022-10-13T00:15:47.385Z,11.50
2022-10-13T00:18:15.722Z,13.25
2022-10-13T00:20:45.176Z,10.68
2022-10-13T00:23:13.908Z,10.48
2022-10-13T00:25:43.378Z,10.20
2022-10-13T00:28:11.445Z,12.27
2022-10-13T00:30:40.326Z,13.63
2022-10-13T00:33:10.747Z,11.65
2022-10-13T00:35:42.989Z,11.57
2022-10-13T00:38:16.622Z,8.50
2022-10-13T00:40:46.157Z,8.40
2022-10-13T00:43:22.340Z,8.82
2022-10-13T00:45:50.845Z,9.27
2022-10-13T00:48:23.625Z,10.97
2022-10-13T00:50:52.484Z,11.23
2022-10-13T00:53:24.110Z,12.48
2022-10-13T00:55:53.476Z,13.25
2022-10-13T00:58:26.475Z,11.63
2022-10-13T01:00:54.764Z,10.32
2022-10-13T01:03:24.657Z,8.60
2022-10-13T01:05:54.707Z,9.10
2022-10-13T01:08:26.876Z,9.20
2022-10-13T01:11:10.907Z,10.48
2022-10-13T01:13:43.476Z,12.43
2022-10-13T01:16:16.777Z,11.35
2022-10-13T01:18:53.675Z,12.50
2022-10-13T01:21:29.290Z,12.75
2022-10-13T01:24:26.692Z,10.23
2022-10-13T01:27:16.307Z,9.40
2022-10-13T01:30:06.922Z,12.05
2022-10-13T01:33:02.632Z,9.87
2022-10-13T01:35:41.112Z,8.88
2022-10-13T01:38:16.387Z,10.52
2022-10-13T01:40:49.880Z,10.27
2022-10-13T01:43:24.539Z,10.00
2022-10-13T01:45:59.842Z,10.80
2022-10-13T01:48:28.855Z,9.13
2022-10-13T01:50:59.697Z,10.88
2022-10-13T01:53:28.905Z,10.73
2022-10-13T01:55:58.614Z,12.55
2022-10-13T01:58:29.884Z,14.63
2022-10-13T02:01:11.041Z,13.50
2022-10-13T02:03:53.178Z,15.50
2022-10-13T02:06:25.970Z,15.80
2022-10-13T02:09:02.540Z,15.95
2022-10-13T02:11:30.277Z,15.90
2022-10-13T02:14:03.075Z,12.70
2022-10-13T02:16:35.952Z,10.93
2022-10-13T02:19:05.716Z,13.35
2022-10-13T02:21:35.186Z,12.50
2022-10-13T02:24:03.615Z,14.40
2022-10-13T02:26:33.274Z,11.85
2022-10-13T02:29:11.196Z,12.77
2022-10-13T02:31:41.325Z,15.15
2022-10-13T02:34:09.213Z,14.73
2022-10-13T02:36:38.996Z,15.43
2022-10-13T02:39:07.710Z,14.77
2022-10-13T02:41:37.696Z,14.67
2022-10-13T02:44:06.012Z,14.75
2022-10-13T02:46:43.020Z,13.23
2022-10-13T02:49:10.882Z,12.30
2022-10-13T02:51:40.284Z,14.00
2022-10-13T02:54:08.717Z,15.88
2022-10-13T02:56:36.440Z,16.25
2022-10-13T03:00:51.052Z,13.57
2022-10-13T03:03:18.879Z,12.60
2022-10-13T03:05:48.133Z,14.40
2022-10-13T03:08:17.218Z,14.30
2022-10-13T03:10:46.176Z,14.25
2022-10-13T03:13:13.952Z,13.20
2022-10-13T03:15:43.818Z,14.23
2022-10-13T03:18:12.916Z,11.63
2022-10-13T03:20:40.751Z,12.20
2022-10-13T03:23:08.716Z,12.60
2022-10-13T03:25:37.190Z,11.40
2022-10-13T03:28:05.035Z,12.20
2022-10-13T03:30:32.735Z,11.60
2022-10-13T03:33:00.451Z,11.95
2022-10-13T03:35:29.520Z,11.17
2022-10-13T03:37:59.339Z,11.88
2022-10-13T03:40:31.486Z,12.90
2022-10-13T03:42:59.234Z,15.63
2022-10-13T03:45:31.332Z,14.65
2022-10-13T03:47:59.202Z,12.25
2022-10-13T03:50:27.086Z,11.75
2022-10-13T03:52:56.975Z,11.65
2022-10-13T03:55:24.698Z,12.00
2022-10-13T03:57:52.442Z,14.20
2022-10-13T04:00:22.425Z,15.30
2022-10-13T04:02:51.082Z,12.48
2022-10-13T04:05:18.787Z,13.77
2022-10-13T04:07:46.553Z,16.17
2022-10-13T04:10:20.885Z,14.93
2022-10-13T04:12:50.392Z,12.48
2022-10-13T04:15:18.308Z,14.13
2022-10-13T04:17:46.018Z,13.27
2022-10-13T04:20:16.060Z,14.88
2022-10-13T04:22:43.760Z,15.10
2022-10-13T04:25:11.647Z,15.77
2022-10-13T04:27:40.765Z,12.88
2022-10-13T04:30:13.342Z,15.07
2022-10-13T04:32:41.649Z,14.10
2022-10-13T04:35:12.133Z,13.75
2022-10-13T04:37:44.828Z,13.20
2022-10-13T04:40:13.537Z,12.98
2022-10-13T04:42:42.849Z,12.40
2022-10-13T04:45:11.156Z,12.40
2022-10-13T04:47:41.210Z,11.65
2022-10-13T04:50:10.189Z,13.60
2022-10-13T04:52:38.162Z,13.07
2022-10-13T04:55:07.018Z,11.20
2022-10-13T04:57:35.011Z,12.02
2022-10-13T05:00:07.216Z,12.30
2022-10-13T05:02:36.277Z,11.20
2022-10-13T05:05:04.883Z,12.33
2022-10-13T05:07:33.412Z,10.77
2022-10-13T05:10:01.388Z,10.93
2022-10-13T05:12:29.680Z,11.77
2022-10-13T05:14:58.880Z,12.30
2022-10-13T05:17:34.869Z,10.45
2022-10-13T05:20:07.729Z,9.02
2022-10-13T05:22:35.901Z,11.38
2022-10-13T05:25:04.182Z,8.70
2022-10-13T05:27:32.122Z,9.02
2022-10-13T05:30:03.803Z,12.55
2022-10-13T05:32:32.953Z,14.13
2022-10-13T05:35:00.730Z,10.60
2022-10-13T05:37:28.488Z,12.27
2022-10-13T05:39:56.271Z,12.30
2022-10-13T05:42:24.041Z,9.88
2022-10-13T05:44:52.129Z,10.82
2022-10-13T05:47:19.858Z,9.50
2022-10-13T05:49:48.926Z,9.07
2022-10-13T05:52:19.179Z,12.27
2022-10-13T05:54:49.909Z,9.90
2022-10-13T05:57:22.159Z,13.37
2022-10-13T05:59:53.286Z,10.23
2022-10-13T06:02:25.891Z,8.63
2022-10-13T06:04:57.525Z,9.20
2022-10-13T06:07:25.609Z,12.52
2022-10-13T06:09:53.475Z,11.88
2022-10-13T06:12:21.521Z,9.90
2022-10-13T06:14:49.347Z,9.02
2022-10-13T06:17:17.279Z,11.13
2022-10-13T06:19:46.232Z,9.53
2022-10-13T06:22:15.583Z,12.35
2022-10-13T06:24:43.303Z,9.70
2022-10-13T06:27:13.536Z,12.57
2022-10-13T06:29:41.281Z,8.82
2022-10-13T06:32:09.037Z,9.00
2022-10-13T06:34:36.789Z,13.27
2022-10-13T06:37:04.629Z,10.25
2022-10-13T06:39:33.835Z,8.93
2022-10-13T06:42:04.706Z,11.13
2022-10-13T06:44:37.156Z,11.53
2022-10-13T06:47:05.689Z,11.10
2022-10-13T06:49:33.454Z,12.77
2022-10-13T06:52:01.243Z,10.57
2022-10-13T06:54:28.947Z,11.38
2022-10-13T06:56:58.043Z,12.57
2022-10-13T06:59:26.405Z,13.55
2022-10-13T07:01:54.528Z,11.73
2022-10-13T07:04:22.924Z,12.80
2022-10-13T07:06:50.871Z,12.20
2022-10-13T07:09:20.014Z,13.23
2022-10-13T07:11:48.096Z,13.40
2022-10-13T07:14:19.297Z,13.95
2022-10-13T07:16:49.109Z,14.23
2022-10-13T07:19:16.787Z,13.60
2022-10-13T07:21:44.546Z,13.23
2022-10-13T07:24:13.058Z,13.50
2022-10-13T07:26:40.851Z,10.70
2022-10-13T07:29:08.918Z,14.02
2022-10-13T07:31:38.006Z,12.98
2022-10-13T07:34:06.659Z,12.88
2022-10-13T07:36:35.430Z,13.88
2022-10-13T07:39:03.872Z,13.90
2022-10-13T07:41:32.195Z,15.00
2022-10-13T07:43:59.921Z,13.25
2022-10-13T07:46:27.840Z,13.50
2022-10-13T07:48:57.070Z,13.55
2022-10-13T07:51:24.827Z,13.35
2022-10-13T07:53:52.515Z,13.93
2022-10-13T07:56:20.207Z,13.00
2022-10-13T07:58:50.049Z,12.98
2022-10-13T08:01:19.865Z,11.60
2022-10-13T08:03:50.230Z,12.27
2022-10-13T08:06:20.625Z,13.43
2022-10-13T08:08:48.554Z,13.07
2022-10-13T08:11:17.888Z,11.73
2022-10-13T08:13:48.679Z,12.13
2022-10-13T08:16:21.675Z,11.07
2022-10-13T08:18:51.574Z,12.15
2022-10-13T08:21:45.808Z,12.15
2022-10-13T08:24:14.354Z,12.27
2022-10-13T08:26:43.825Z,12.05
2022-10-13T08:29:28.181Z,11.98
2022-10-13T08:31:56.776Z,10.63
2022-10-13T08:34:25.788Z,11.53
2022-10-13T08:36:56.595Z,10.88
2022-10-13T08:39:25.692Z,10.95
2022-10-13T08:41:54.708Z,11.27
2022-10-13T08:47:25.402Z,11.47
2022-10-13T08:50:00.250Z,11.07
2022-10-13T08:52:44.483Z,11.35
2022-10-13T08:55:21.145Z,11.02
2022-10-13T08:57:48.997Z,10.90
2022-10-13T09:00:19.011Z,10.63
2022-10-13T09:02:50.840Z,10.60
2022-10-13T09:05:32.418Z,9.60
2022-10-13T09:08:12.330Z,9.85
2022-10-13T09:10:47.958Z,10.40
2022-10-13T09:13:19.568Z,9.10
2022-10-13T09:15:50.351Z,7.90
2022-10-13T09:18:18.324Z,9.43
2022-10-13T09:20:46.145Z,9.38
2022-10-13T09:23:21.499Z,10.40
2022-10-13T09:25:51.185Z,8.95
2022-10-13T09:28:23.861Z,8.88
2022-10-13T09:31:02.847Z,9.00
2022-10-13T09:33:30.577Z,8.80
2022-10-13T09:36:14.214Z,8.43
2022-10-13T09:38:45.621Z,7.97
2022-10-13T09:41:17.487Z,7.32
2022-10-13T09:43:59.955Z,7.53
2022-10-13T09:46:30.970Z,7.20
2022-10-13T09:49:03.112Z,8.07
2022-10-13T09:51:38.709Z,7.90
2022-10-13T09:54:29.476Z,7.73
2022-10-13T09:57:02.227Z,7.53
2022-10-13T09:59:35.825Z,7.78
2022-10-13T10:02:21.345Z,7.50
2022-10-13T10:04:54.264Z,7.55
2022-10-13T10:07:29.167Z,6.87
2022-10-13T10:10:04.877Z,7.35
2022-10-13T10:12:38.277Z,7.40
2022-10-13T10:15:21.247Z,6.97
2022-10-13T10:17:56.092Z,6.65
2022-10-13T10:20:46.537Z,7.00
2022-10-13T10:23:20.202Z,6.28
2022-10-13T10:25:52.882Z,6.63
2022-10-13T10:28:40.433Z,6.45
2022-10-13T10:31:19.662Z,6.30
2022-10-13T10:33:56.743Z,6.30
2022-10-13T10:36:35.629Z,5.80
2022-10-13T10:39:13.856Z,5.72
2022-10-13T10:41:50.649Z,5.88
2022-10-13T10:44:25.969Z,5.95
2022-10-13T10:46:59.803Z,5.93
2022-10-13T10:49:32.043Z,5.30
2022-10-13T10:52:02.155Z,5.85
2022-10-13T10:54:49.238Z,5.85
2022-10-13T10:57:25.531Z,5.35
2022-10-13T11:00:01.748Z,4.90
2022-10-13T11:02:45.050Z,5.10
2022-10-13T11:05:13.444Z,5.60
2022-10-13T11:07:59.603Z,5.32
2022-10-13T11:10:28.428Z,5.55
2022-10-13T11:13:25.875Z,5.53
2022-10-13T11:15:55.511Z,5.97
2022-10-13T11:18:56.496Z,5.20
2022-10-13T11:22:06.847Z,5.43
2022-10-13T11:24:59.722Z,5.43
2022-10-13T11:27:42.530Z,5.35
2022-10-13T11:30:57.380Z,6.10
2022-10-13T11:33:36.591Z,5.22
2022-10-13T11:36:36.539Z,5.60
2022-10-13T11:39:20.808Z,5.50
2022-10-13T11:41:59.452Z,5.70
2022-10-13T11:44:36.087Z,5.30
2022-10-13T11:47:16.036Z,5.10
2022-10-13T11:49:58.933Z,4.87
2022-10-13T11:52:41.028Z,6.07
2022-10-13T11:55:15.863Z,5.57
2022-10-13T11:57:46.234Z,5.78
2022-10-13T12:00:18.418Z,5.30
2022-10-13T12:02:52.168Z,5.72
2022-10-13T12:05:24.361Z,5.93
2022-10-13T12:07:58.544Z,5.97
2022-10-13T12:10:33.189Z,5.45
2022-10-13T12:13:05.985Z,5.38
2022-10-13T12:15:36.322Z,4.97
2022-10-13T12:18:19.880Z,5.47
2022-10-13T12:20:54.666Z,5.35
2022-10-13T12:23:22.888Z,6.10
2022-10-13T12:25:57.173Z,6.07
2022-10-13T12:28:28.390Z,6.20
2022-10-13T12:30:58.742Z,4.55
2022-10-13T12:33:32.548Z,5.50
2022-10-13T12:36:13.941Z,6.30
2022-10-13T12:38:46.777Z,5.43
2022-10-13T12:41:19.208Z,5.55
2022-10-13T12:43:49.632Z,5.10
2022-10-13T12:46:36.305Z,4.88
2022-10-13T12:49:09.187Z,4.53
2022-10-13T12:51:39.596Z,5.60
2022-10-13T12:54:09.461Z,4.55
2022-10-13T12:56:37.265Z,5.23
2022-10-13T12:59:06.369Z,5.55
2022-10-13T13:01:36.060Z,4.70
2022-10-13T13:04:17.773Z,5.20
2022-10-13T13:06:57.267Z,5.05
2022-10-13T13:09:28.177Z,3.78
2022-10-13T13:12:08.083Z,4.20
2022-10-13T13:14:39.564Z,4.53
2022-10-13T13:17:12.980Z,4.13
2022-10-13T13:19:42.587Z,4.60
2022-10-13T13:22:12.816Z,4.07
2022-10-13T13:24:40.850Z,4.00
2022-10-13T13:27:24.227Z,4.70
2022-10-13T13:29:54.599Z,4.47
2022-10-13T13:32:26.416Z,3.78
2022-10-13T13:34:54.101Z,4.22
2022-10-13T13:37:28.457Z,3.97
2022-10-13T13:39:56.416Z,3.85
2022-10-13T13:42:24.232Z,4.20
2022-10-13T13:44:53.270Z,3.80
2022-10-13T13:47:23.711Z,3.83
2022-10-13T13:49:54.049Z,3.60
2022-10-13T13:52:25.237Z,3.70
2022-10-13T13:54:56.122Z,3.75
2022-10-13T13:57:23.882Z,3.43
2022-10-13T13:59:52.996Z,4.00
2022-10-13T14:02:22.656Z,3.60
2022-10-13T14:04:53.279Z,4.30
2022-10-13T14:07:21.602Z,4.03
2022-10-13T14:09:53.795Z,4.63
2022-10-13T14:12:23.513Z,3.95
2022-10-13T14:14:52.850Z,4.40
2022-10-13T14:17:22.882Z,4.67
2022-10-13T14:19:50.634Z,4.75
2022-10-13T14:22:18.471Z,4.10
2022-10-13T14:24:48.387Z,4.72
2022-10-13T14:27:16.139Z,5.00
2022-10-13T14:29:46.253Z,4.50
2022-10-13T14:32:15.593Z,4.93
2022-10-13T14:34:43.333Z,5.25
2022-10-13T14:37:11.221Z,6.47
2022-10-13T14:39:39.139Z,6.68
2022-10-13T14:42:07.428Z,6.15
2022-10-13T14:44:35.152Z,6.15
2022-10-13T14:47:02.875Z,5.13
2022-10-13T14:49:31.983Z,4.10
2022-10-13T14:51:59.656Z,6.18
2022-10-13T14:54:28.919Z,5.60
2022-10-13T14:56:56.605Z,5.75
2022-10-13T14:59:24.258Z,6.70
2022-10-13T15:01:51.938Z,6.15
2022-10-13T15:04:19.620Z,6.28
2022-10-13T15:11:07.196Z,7.25
2022-10-13T15:13:35.001Z,6.93
2022-10-13T15:16:04.676Z,7.38
2022-10-13T15:18:33.133Z,6.55
2022-10-13T15:21:01.017Z,7.00
2022-10-13T15:23:29.223Z,7.18
2022-10-13T15:25:58.632Z,7.22
2022-10-13T15:28:29.745Z,7.10
2022-10-13T15:30:57.590Z,7.67
2022-10-13T15:33:25.338Z,5.00
2022-10-13T15:35:54.627Z,6.23
2022-10-13T15:38:23.180Z,7.83
2022-10-13T15:40:50.907Z,6.00
2022-10-13T15:43:19.467Z,6.27
2022-10-13T15:45:56.371Z,5.60
2022-10-13T15:48:24.734Z,7.40
2022-10-13T15:50:52.575Z,5.28
2022-10-13T15:53:20.938Z,6.80
2022-10-13T15:55:49.678Z,7.57
2022-10-13T15:58:18.145Z,5.32
2022-10-13T16:00:46.462Z,6.88
2022-10-13T16:03:17.702Z,7.73
2022-10-13T16:05:46.779Z,6.43
2022-10-13T16:08:15.189Z,5.90
2022-10-13T16:10:44.233Z,5.70
2022-10-13T16:13:15.289Z,6.40
2022-10-13T16:15:43.056Z,8.02
2022-10-13T16:18:11.122Z,6.95
2022-10-13T16:20:45.233Z,8.93
2022-10-13T16:23:13.171Z,5.60
2022-10-13T16:25:41.020Z,4.90
2022-10-13T16:28:08.705Z,5.03
2022-10-13T16:30:37.334Z,6.10
2022-10-13T16:33:05.195Z,5.43
2022-10-13T16:35:34.205Z,4.93
2022-10-13T16:38:05.471Z,4.90
2022-10-13T16:40:38.014Z,9.50
2022-10-13T16:43:05.769Z,6.18
2022-10-13T16:45:55.262Z,4.78
2022-10-13T16:48:21.478Z,7.50
2022-10-13T16:50:49.167Z,5.55
2022-10-13T16:53:21.573Z,7.57
2022-10-13T16:55:49.336Z,5.90
2022-10-13T16:58:17.866Z,8.30
2022-10-13T17:00:45.662Z,8.20
2022-10-13T17:03:13.486Z,8.57
2022-10-13T17:05:41.334Z,6.03
2022-10-13T17:08:09.069Z,6.30
2022-10-13T17:10:38.208Z,9.45
2022-10-13T17:13:06.081Z,9.75
2022-10-13T17:15:33.883Z,9.80
2022-10-13T17:18:01.582Z,10.65
2022-10-13T17:20:29.325Z,11.17
2022-10-13T17:22:57.057Z,7.38
2022-10-13T17:25:25.047Z,5.68
2022-10-13T17:27:54.316Z,7.28
2022-10-13T17:30:22.275Z,10.80
2022-10-13T17:32:52.347Z,12.20
2022-10-13T17:35:23.287Z,11.98
2022-10-13T17:37:51.050Z,11.75
2022-10-13T17:40:19.260Z,12.00
2022-10-13T17:42:47.081Z,8.45
2022-10-13T17:45:18.545Z,6.53
2022-10-13T17:47:49.530Z,7.47
2022-10-13T17:50:17.811Z,7.50
2022-10-13T17:52:45.673Z,7.78
2022-10-13T17:55:13.451Z,6.97
2022-10-13T17:57:43.337Z,7.60
2022-10-13T18:00:12.479Z,7.80
2022-10-13T18:02:41.661Z,7.93
2022-10-13T18:05:09.772Z,6.60
2022-10-13T18:07:37.660Z,6.80
2022-10-13T18:10:06.711Z,7.90
2022-10-13T18:12:34.524Z,6.88
2022-10-13T18:15:02.308Z,6.60
2022-10-13T18:17:30.041Z,6.13
2022-10-13T18:19:59.863Z,7.45
2022-10-13T18:22:28.516Z,6.45
2022-10-13T18:24:57.401Z,6.45
2022-10-13T18:27:25.177Z,8.57
2022-10-13T18:29:52.937Z,9.00
2022-10-13T18:32:22.561Z,8.80
2022-10-13T18:34:50.273Z,8.82
2022-10-13T18:37:19.682Z,9.23
2022-10-13T18:39:49.512Z,10.52
2022-10-13T18:42:17.196Z,7.63
2022-10-13T18:44:44.899Z,10.10
2022-10-13T18:47:12.638Z,7.05
2022-10-13T18:49:40.307Z,6.53
2022-10-13T18:52:08.041Z,12.07
2022-10-13T18:54:41.139Z,12.55
2022-10-13T18:57:08.837Z,12.38
2022-10-13T18:59:38.613Z,12.17
2022-10-13T19:02:06.516Z,10.60
2022-10-13T19:04:36.232Z,12.43
2022-10-13T19:07:04.273Z,12.40
2022-10-13T19:09:32.087Z,8.65
2022-10-13T19:12:01.147Z,8.00
2022-10-13T19:14:31.207Z,8.07
2022-10-13T19:17:01.942Z,7.97
2022-10-13T19:19:30.647Z,8.40
2022-10-13T19:21:58.553Z,7.07
2022-10-13T19:24:26.292Z,9.02
2022-10-13T19:26:54.045Z,10.48
2022-10-13T19:29:23.157Z,10.13
2022-10-13T19:31:52.982Z,11.15
2022-10-13T19:34:20.922Z,12.90
2022-10-13T19:36:49.128Z,10.20
2022-10-13T19:39:19.718Z,10.32
2022-10-13T19:41:48.465Z,8.57
2022-10-13T19:44:17.522Z,10.53
2022-10-13T19:46:48.025Z,9.95
2022-10-13T19:49:21.141Z,10.25
2022-10-13T19:51:50.052Z,8.85
2022-10-13T19:54:19.442Z,11.18
2022-10-13T19:56:49.011Z,11.03
2022-10-13T19:59:17.623Z,8.93
2022-10-13T20:01:46.733Z,9.07
2022-10-13T20:04:15.845Z,10.77
2022-10-13T20:06:44.451Z,9.30
2022-10-13T20:09:12.241Z,8.85
2022-10-13T20:11:39.976Z,9.57
2022-10-13T20:14:07.774Z,8.70
2022-10-13T20:16:36.678Z,7.90
2022-10-13T20:19:05.790Z,9.53
2022-10-13T20:21:33.534Z,12.27
2022-10-13T20:24:01.322Z,7.25
2022-10-13T20:26:29.321Z,8.43
2022-10-13T20:28:58.131Z,11.67
2022-10-13T20:31:26.514Z,9.68
2022-10-13T20:33:55.751Z,11.30
2022-10-13T20:36:28.839Z,10.77
2022-10-13T20:38:56.928Z,9.87
2022-10-13T20:41:28.288Z,8.90
2022-10-13T20:43:57.810Z,8.43
2022-10-13T20:46:25.903Z,10.07
2022-10-13T20:49:11.811Z,7.43
2022-10-13T20:51:42.499Z,7.87
2022-10-13T20:54:14.083Z,12.20
2022-10-13T20:56:42.364Z,9.90
2022-10-13T20:59:14.526Z,7.43
2022-10-13T21:01:42.435Z,7.75
2022-10-13T21:04:11.167Z,7.70
2022-10-13T21:06:39.307Z,7.10
2022-10-13T21:09:08.775Z,7.97
2022-10-13T21:11:40.527Z,8.07
2022-10-13T21:14:09.595Z,9.27
2022-10-13T21:16:38.384Z,11.75
2022-10-13T21:19:09.901Z,10.82
2022-10-13T21:21:37.843Z,11.00
2022-10-13T21:24:08.624Z,8.05
2022-10-13T21:26:37.695Z,8.73
2022-10-13T21:29:13.325Z,7.27
2022-10-13T21:31:41.126Z,9.05
2022-10-13T21:34:08.946Z,12.80
2022-10-13T21:36:36.659Z,11.80
2022-10-13T21:39:06.447Z,11.25
2022-10-13T21:41:35.521Z,8.25
2022-10-13T21:44:03.559Z,9.48
2022-10-13T21:46:34.706Z,10.50
2022-10-13T21:49:04.443Z,10.80
2022-10-13T21:51:33.437Z,8.52
2022-10-13T21:54:03.693Z,10.27
2022-10-13T21:56:32.597Z,10.20
2022-10-13T21:59:02.286Z,10.20
2022-10-13T22:01:30.526Z,9.77
2022-10-13T22:04:01.355Z,9.35
2022-10-13T22:06:31.647Z,7.83
2022-10-13T22:09:03.951Z,9.00
2022-10-13T22:11:34.405Z,8.57
2022-10-13T22:14:08.678Z,8.43
2022-10-13T22:16:40.671Z,7.13
2022-10-13T22:19:08.784Z,7.82
2022-10-13T22:21:40.091Z,6.70
2022-10-13T22:24:10.520Z,8.43
2022-10-13T22:26:41.168Z,7.97
2022-10-13T22:29:12.940Z,7.18
2022-10-13T22:31:41.480Z,8.90
2022-10-13T22:34:12.954Z,8.20
2022-10-13T22:36:44.738Z,6.82
2022-10-13T22:39:13.213Z,7.97
2022-10-13T22:41:41.404Z,8.45
2022-10-13T22:44:10.528Z,9.00
2022-10-13T22:46:39.014Z,8.90
2022-10-13T22:49:08.113Z,9.68
2022-10-13T22:51:37.604Z,9.07
2022-10-13T22:54:07.528Z,9.00
2022-10-13T22:56:36.148Z,9.57
2022-10-13T22:59:07.317Z,9.90
2022-10-13T23:01:38.815Z,9.27
2022-10-13T23:04:06.887Z,9.18
2022-10-13T23:06:36.055Z,9.52
2022-10-13T23:09:08.129Z,9.77
2022-10-13T23:11:36.692Z,7.53
2022-10-13T23:14:07.091Z,6.77
2022-10-13T23:16:35.241Z,6.63
2022-10-13T23:19:04.623Z,7.47
2022-10-13T23:21:32.872Z,6.80
2022-10-13T23:24:02.768Z,9.50
2022-10-13T23:26:31.503Z,6.90
2022-10-13T23:29:00.028Z,9.07
2022-10-13T23:31:28.670Z,6.63
2022-10-13T23:33:56.749Z,7.63
2022-10-13T23:36:28.269Z,6.63
2022-10-13T23:38:58.118Z,7.63
2022-10-13T23:41:26.232Z,7.72
2022-10-13T23:43:56.244Z,8.30
2022-10-13T23:46:24.161Z,7.95
2022-10-13T23:48:52.255Z,9.55
2022-10-13T23:51:21.920Z,8.63
2022-10-13T23:53:51.731Z,10.20
2022-10-13T23:56:20.404Z,9.60
2022-10-13T23:58:48.527Z,8.73
